createdAt,value
2022-12-01T00:00:59.169Z,0.00
2022-12-01T00:01:59.370Z,0.00
2022-12-01T00:02:59.514Z,0.00
2022-12-01T00:03:59.584Z,0.00
2022-12-01T00:04:59.744Z,0.00
2022-12-01T00:05:59.862Z,0.00
2022-12-01T00:07:00.001Z,0.00
2022-12-01T00:08:00.243Z,0.00
2022-12-01T00:09:00.276Z,0.00
2022-12-01T00:10:00.425Z,0.00
2022-12-01T00:11:00.561Z,0.00
2022-12-01T00:12:00.689Z,0.00
2022-12-01T00:13:00.829Z,0.00
2022-12-01T00:14:00.956Z,0.00
2022-12-01T00:15:01.211Z,0.00
2022-12-01T00:16:01.271Z,0.00
2022-12-01T00:17:01.418Z,0.00
2022-12-01T00:18:01.545Z,0.00
2022-12-01T00:19:01.678Z,0.00
2022-12-01T00:20:01.820Z,0.00
2022-12-01T00:21:01.980Z,0.00
2022-12-01T00:22:02.103Z,0.00
2022-12-01T00:23:02.252Z,0.00
2022-12-01T00:24:02.386Z,0.00
2022-12-01T00:25:02.595Z,0.00
2022-12-01T00:26:02.731Z,0.00
2022-12-01T00:27:02.867Z,0.00
2022-12-01T00:28:02.980Z,0.00
2022-12-01T00:29:03.104Z,0.00
2022-12-01T00:30:04.205Z,0.00
2022-12-01T00:31:03.445Z,0.00
2022-12-01T00:32:03.673Z,0.00
2022-12-01T00:33:03.705Z,0.00
2022-12-01T00:34:06.898Z,0.00
2022-12-01T00:35:05.043Z,0.00
2022-12-01T00:36:04.166Z,0.00
2022-12-01T00:37:04.292Z,0.00
2022-12-01T00:38:04.411Z,0.00
2022-12-01T00:39:04.546Z,0.00
2022-12-01T00:40:04.671Z,0.00
2022-12-01T00:41:04.801Z,0.00
2022-12-01T00:42:10.051Z,0.00
2022-12-01T00:43:06.121Z,0.00
2022-12-01T00:44:05.235Z,0.00
2022-12-01T00:45:05.359Z,0.00
2022-12-01T00:46:05.588Z,0.00
2022-12-01T00:47:05.622Z,0.00
2022-12-01T00:48:05.753Z,0.00
2022-12-01T00:49:05.897Z,0.00
2022-12-01T00:50:06.041Z,0.00
2022-12-01T00:51:06.187Z,0.00
2022-12-01T00:52:06.312Z,0.00
2022-12-01T00:53:06.449Z,0.00
2022-12-01T00:54:06.565Z,0.00
2022-12-01T00:55:06.708Z,0.00
2022-12-01T00:56:06.846Z,0.00
2022-12-01T00:57:06.984Z,0.00
2022-12-01T00:58:07.115Z,0.00
2022-12-01T00:59:07.251Z,0.00
2022-12-01T01:00:07.386Z,0.00
2022-12-01T01:01:07.673Z,0.00
2022-12-01T01:02:07.774Z,0.00
2022-12-01T01:03:07.815Z,0.00
2022-12-01T01:04:07.954Z,0.00
2022-12-01T01:05:08.115Z,0.00
2022-12-01T01:06:08.276Z,0.00
2022-12-01T01:07:08.424Z,0.00
2022-12-01T01:08:08.651Z,0.00
2022-12-01T01:09:08.672Z,0.00
2022-12-01T01:10:08.805Z,0.00
2022-12-01T01:11:08.960Z,0.00
2022-12-01T01:12:09.101Z,0.00
2022-12-01T01:13:09.230Z,0.00
2022-12-01T01:14:09.375Z,0.00
2022-12-01T01:15:09.516Z,0.00
2022-12-01T01:16:09.695Z,0.00
2022-12-01T01:17:09.897Z,0.00
2022-12-01T01:18:09.943Z,0.00
2022-12-01T01:19:10.085Z,0.00
2022-12-01T01:20:10.220Z,0.00
2022-12-01T01:21:10.389Z,0.00
2022-12-01T01:22:10.515Z,0.00
2022-12-01T01:23:10.648Z,0.00
2022-12-01T01:24:10.787Z,0.00
2022-12-01T01:25:10.932Z,0.00
2022-12-01T01:26:11.077Z,0.00
2022-12-01T01:27:11.218Z,0.00
2022-12-01T01:28:11.351Z,0.00
2022-12-01T01:29:11.494Z,0.00
2022-12-01T01:30:11.636Z,0.00
2022-12-01T01:31:11.857Z,0.00
2022-12-01T01:32:11.920Z,0.00
2022-12-01T01:33:12.062Z,0.00
2022-12-01T01:34:12.188Z,0.00
2022-12-01T01:35:12.322Z,0.00
2022-12-01T01:36:12.472Z,0.00
2022-12-01T01:37:12.625Z,0.00
2022-12-01T01:38:12.755Z,0.00
2022-12-01T01:39:12.890Z,0.00
2022-12-01T01:40:13.014Z,0.00
2022-12-01T01:41:13.162Z,0.00
2022-12-01T01:42:13.290Z,0.00
2022-12-01T01:43:13.427Z,0.00
2022-12-01T01:44:13.554Z,0.00
2022-12-01T01:45:13.679Z,0.00
2022-12-01T01:46:13.880Z,0.00
2022-12-01T01:47:14.028Z,0.00
2022-12-01T01:48:14.173Z,0.00
2022-12-01T01:49:14.306Z,0.00
2022-12-01T01:50:14.452Z,0.00
2022-12-01T01:51:14.588Z,0.00
2022-12-01T01:52:14.734Z,0.00
2022-12-01T01:53:14.860Z,0.00
2022-12-01T01:54:15.007Z,0.00
2022-12-01T01:55:15.140Z,0.00
2022-12-01T01:56:15.308Z,0.00
2022-12-01T01:57:15.442Z,0.00
2022-12-01T01:58:15.570Z,0.00
2022-12-01T01:59:15.696Z,0.00
2022-12-01T02:00:15.845Z,0.00
2022-12-01T02:01:16.059Z,0.00
2022-12-01T02:02:16.160Z,0.00
2022-12-01T02:03:16.271Z,0.00
2022-12-01T02:04:16.412Z,0.00
2022-12-01T02:05:16.543Z,0.00
2022-12-01T02:06:16.684Z,0.00
2022-12-01T02:07:16.802Z,0.00
2022-12-01T02:08:16.928Z,0.00
2022-12-01T02:09:17.052Z,0.00
2022-12-01T02:10:17.186Z,0.00
2022-12-01T02:11:17.340Z,0.00
2022-12-01T02:12:17.459Z,0.00
2022-12-01T02:13:17.580Z,0.00
2022-12-01T02:14:17.820Z,0.00
2022-12-01T02:15:17.946Z,0.00
2022-12-01T02:16:18.169Z,0.00
2022-12-01T02:17:18.287Z,0.00
2022-12-01T02:18:18.428Z,0.00
2022-12-01T02:19:18.563Z,0.00
2022-12-01T02:20:18.695Z,0.00
2022-12-01T02:21:18.849Z,0.00
2022-12-01T02:22:18.987Z,0.00
2022-12-01T02:23:19.116Z,0.00
2022-12-01T02:24:19.254Z,0.00
2022-12-01T02:25:19.380Z,0.00
2022-12-01T02:26:19.525Z,0.00
2022-12-01T02:27:19.655Z,0.00
2022-12-01T02:28:19.814Z,0.00
2022-12-01T02:29:19.936Z,0.00
2022-12-01T02:30:20.081Z,0.00
2022-12-01T02:31:20.269Z,0.00
2022-12-01T02:32:20.385Z,0.00
2022-12-01T02:33:20.519Z,0.00
2022-12-01T02:34:20.665Z,0.00
2022-12-01T02:35:20.812Z,0.00
2022-12-01T02:36:20.974Z,0.00
2022-12-01T02:37:21.108Z,0.00
2022-12-01T02:38:21.238Z,0.00
2022-12-01T02:39:21.376Z,0.00
2022-12-01T02:40:21.511Z,0.00
2022-12-01T02:41:21.654Z,0.00
2022-12-01T02:42:21.799Z,0.00
2022-12-01T02:43:21.957Z,0.00
2022-12-01T02:44:22.104Z,0.00
2022-12-01T02:45:22.232Z,0.00
2022-12-01T02:46:22.441Z,0.00
2022-12-01T02:47:22.480Z,0.00
2022-12-01T02:48:22.628Z,0.00
2022-12-01T02:49:22.764Z,0.00
2022-12-01T02:50:22.914Z,0.00
2022-12-01T02:51:23.074Z,0.00
2022-12-01T02:52:23.325Z,0.00
2022-12-01T02:53:23.387Z,0.00
2022-12-01T02:54:23.553Z,0.00
2022-12-01T02:55:23.693Z,0.00
2022-12-01T02:56:23.863Z,0.00
2022-12-01T02:57:23.997Z,0.00
2022-12-01T02:58:24.179Z,0.00
2022-12-01T02:59:24.310Z,0.00
2022-12-01T03:00:24.454Z,0.00
2022-12-01T03:01:24.679Z,0.00
2022-12-01T03:02:24.819Z,0.00
2022-12-01T03:03:24.959Z,0.00
2022-12-01T03:04:25.194Z,0.00
2022-12-01T03:05:25.348Z,0.00
2022-12-01T03:06:25.518Z,0.00
2022-12-01T03:07:25.687Z,0.00
2022-12-01T03:08:25.855Z,0.00
2022-12-01T03:09:26.018Z,0.00
2022-12-01T03:10:26.173Z,0.00
2022-12-01T03:11:26.389Z,0.00
2022-12-01T03:12:26.574Z,0.00
2022-12-01T03:13:26.754Z,0.00
2022-12-01T03:14:26.917Z,0.00
2022-12-01T03:15:27.058Z,0.00
2022-12-01T03:16:27.327Z,0.00
2022-12-01T03:17:27.354Z,0.00
2022-12-01T03:18:27.508Z,0.00
2022-12-01T03:19:27.647Z,0.00
2022-12-01T03:20:27.790Z,0.00
2022-12-01T03:21:27.946Z,0.00
2022-12-01T03:22:28.098Z,0.00
2022-12-01T03:23:28.254Z,0.00
2022-12-01T03:24:28.386Z,0.00
2022-12-01T03:25:28.522Z,0.00
2022-12-01T03:26:28.686Z,0.00
2022-12-01T03:27:28.819Z,0.00
2022-12-01T03:28:28.968Z,0.00
2022-12-01T03:29:29.110Z,0.00
2022-12-01T03:30:29.245Z,0.00
2022-12-01T03:31:29.438Z,0.00
2022-12-01T03:32:29.568Z,0.00
2022-12-01T03:33:29.703Z,0.00
2022-12-01T03:34:29.853Z,0.00
2022-12-01T03:35:30.001Z,0.00
2022-12-01T03:36:30.197Z,0.00
2022-12-01T03:37:30.328Z,0.00
2022-12-01T03:38:30.482Z,0.00
2022-12-01T03:39:30.629Z,0.00
2022-12-01T03:40:30.793Z,0.00
2022-12-01T03:41:30.944Z,0.00
2022-12-01T03:42:31.089Z,0.00
2022-12-01T03:43:31.228Z,0.00
2022-12-01T03:44:39.174Z,0.00
2022-12-01T03:45:31.603Z,0.00
2022-12-01T03:46:31.822Z,0.00
2022-12-01T03:47:31.971Z,0.00
2022-12-01T03:48:32.120Z,0.00
2022-12-01T03:49:32.259Z,0.00
2022-12-01T03:50:32.421Z,0.00
2022-12-01T03:51:32.579Z,0.00
2022-12-01T03:52:32.731Z,0.00
2022-12-01T03:53:32.863Z,0.00
2022-12-01T03:54:33.020Z,0.00
2022-12-01T03:55:33.154Z,0.00
2022-12-01T03:56:33.321Z,0.00
2022-12-01T03:57:33.459Z,0.00
2022-12-01T03:58:33.611Z,0.00
2022-12-01T03:59:33.751Z,0.00
2022-12-01T04:00:33.918Z,0.00
2022-12-01T04:01:34.121Z,0.00
2022-12-01T04:02:34.337Z,0.00
2022-12-01T04:03:34.461Z,0.00
2022-12-01T04:04:34.616Z,0.00
2022-12-01T04:05:34.762Z,0.00
2022-12-01T04:06:34.933Z,0.00
2022-12-01T04:07:35.130Z,0.00
2022-12-01T04:08:35.268Z,0.00
2022-12-01T04:09:35.429Z,0.00
2022-12-01T04:10:35.563Z,0.00
2022-12-01T04:11:35.738Z,0.00
2022-12-01T04:12:35.896Z,0.00
2022-12-01T04:13:36.023Z,0.00
2022-12-01T04:14:36.171Z,0.00
2022-12-01T04:15:36.300Z,0.00
2022-12-01T04:16:36.579Z,0.00
2022-12-01T04:17:36.651Z,0.00
2022-12-01T04:18:36.791Z,0.00
2022-12-01T04:19:36.930Z,0.00
2022-12-01T04:20:37.085Z,0.00
2022-12-01T04:21:37.251Z,0.00
2022-12-01T04:22:37.422Z,0.00
2022-12-01T04:23:37.546Z,0.00
2022-12-01T04:24:37.706Z,0.00
2022-12-01T04:25:37.846Z,0.00
2022-12-01T04:26:38.008Z,0.00
2022-12-01T04:27:38.158Z,0.00
2022-12-01T04:28:38.309Z,0.00
2022-12-01T04:29:38.454Z,0.00
2022-12-01T04:30:38.587Z,0.00
2022-12-01T04:31:38.819Z,0.00
2022-12-01T04:32:38.878Z,0.00
2022-12-01T04:33:39.035Z,0.00
2022-12-01T04:34:39.184Z,0.00
2022-12-01T04:35:39.325Z,0.00
2022-12-01T04:36:39.495Z,0.00
2022-12-01T04:37:39.641Z,0.00
2022-12-01T04:38:39.788Z,0.00
2022-12-01T04:39:39.927Z,0.00
2022-12-01T04:40:40.074Z,0.00
2022-12-01T04:41:40.230Z,0.00
2022-12-01T04:42:40.380Z,0.00
2022-12-01T04:43:40.516Z,0.00
2022-12-01T04:44:40.671Z,0.00
2022-12-01T04:45:40.816Z,0.00
2022-12-01T04:46:41.116Z,0.00
2022-12-01T04:47:41.172Z,0.00
2022-12-01T04:48:41.340Z,0.00
2022-12-01T04:49:41.492Z,0.00
2022-12-01T04:50:41.647Z,0.00
2022-12-01T04:51:41.809Z,0.00
2022-12-01T04:52:41.970Z,0.00
2022-12-01T04:53:42.107Z,0.00
2022-12-01T04:54:42.275Z,0.00
2022-12-01T04:55:42.418Z,0.00
2022-12-01T04:56:42.576Z,0.00
2022-12-01T04:57:42.725Z,0.00
2022-12-01T04:58:42.889Z,0.00
2022-12-01T04:59:43.039Z,0.00
2022-12-01T05:00:43.273Z,0.00
2022-12-01T05:01:43.535Z,0.00
2022-12-01T05:02:43.711Z,0.00
2022-12-01T05:03:43.886Z,0.00
2022-12-01T05:04:44.085Z,0.00
2022-12-01T05:05:44.276Z,0.00
2022-12-01T05:06:44.474Z,0.00
2022-12-01T05:07:44.700Z,0.00
2022-12-01T05:08:44.841Z,0.00
2022-12-01T05:09:44.994Z,0.00
2022-12-01T05:10:45.163Z,0.00
2022-12-01T05:11:45.326Z,0.00
2022-12-01T05:12:45.472Z,0.00
2022-12-01T05:13:45.621Z,0.00
2022-12-01T05:14:45.796Z,0.00
2022-12-01T05:15:45.942Z,0.00
2022-12-01T05:16:46.135Z,0.00
2022-12-01T05:17:46.289Z,0.00
2022-12-01T05:18:46.508Z,0.00
2022-12-01T05:19:46.851Z,0.00
2022-12-01T05:20:46.819Z,0.00
2022-12-01T05:21:46.993Z,0.00
2022-12-01T05:23:05.002Z,0.00
2022-12-01T05:23:48.466Z,0.00
2022-12-01T05:24:47.397Z,0.00
2022-12-01T05:25:47.557Z,0.00
2022-12-01T05:26:47.740Z,0.00
2022-12-01T05:27:47.906Z,0.00
2022-12-01T05:28:48.065Z,0.00
2022-12-01T05:29:48.603Z,0.00
2022-12-01T05:30:48.380Z,0.00
2022-12-01T05:31:48.595Z,0.00
2022-12-01T05:32:48.746Z,0.00
2022-12-01T05:33:48.905Z,0.00
2022-12-01T05:34:49.075Z,0.00
2022-12-01T05:35:49.261Z,0.00
2022-12-01T05:36:49.430Z,0.00
2022-12-01T05:37:49.624Z,0.00
2022-12-01T05:38:49.776Z,0.00
2022-12-01T05:39:50.171Z,0.00
2022-12-01T05:40:50.122Z,0.00
2022-12-01T05:41:50.276Z,0.00
2022-12-01T05:42:50.472Z,0.00
2022-12-01T05:43:50.681Z,0.00
2022-12-01T05:44:50.883Z,0.00
2022-12-01T05:45:51.124Z,0.00
2022-12-01T05:46:51.180Z,0.00
2022-12-01T05:47:51.375Z,0.00
2022-12-01T05:48:51.549Z,0.00
2022-12-01T05:49:51.719Z,0.00
2022-12-01T05:50:51.889Z,0.00
2022-12-01T05:51:52.072Z,0.00
2022-12-01T05:52:52.262Z,0.00
2022-12-01T05:53:52.450Z,0.00
2022-12-01T05:54:52.667Z,0.00
2022-12-01T05:55:52.827Z,0.00
2022-12-01T05:56:53.008Z,0.00
2022-12-01T05:57:53.307Z,0.00
2022-12-01T05:58:53.376Z,0.00
2022-12-01T05:59:53.547Z,0.00
2022-12-01T06:00:53.708Z,0.00
2022-12-01T06:01:53.915Z,0.00
2022-12-01T06:02:54.004Z,0.00
2022-12-01T06:03:54.228Z,0.00
2022-12-01T06:04:54.377Z,0.00
2022-12-01T06:05:54.528Z,0.00
2022-12-01T06:06:54.686Z,0.00
2022-12-01T06:07:54.905Z,0.00
2022-12-01T06:08:55.035Z,0.00
2022-12-01T06:09:55.214Z,0.00
2022-12-01T06:10:55.381Z,0.00
2022-12-01T06:11:55.646Z,0.00
2022-12-01T06:12:55.707Z,0.00
2022-12-01T06:13:55.918Z,0.00
2022-12-01T06:14:56.114Z,0.00
2022-12-01T06:15:56.321Z,0.00
2022-12-01T06:16:56.565Z,0.00
2022-12-01T06:17:56.688Z,0.00
2022-12-01T06:18:56.773Z,0.00
2022-12-01T06:19:56.988Z,0.00
2022-12-01T06:20:57.177Z,0.00
2022-12-01T06:21:57.381Z,0.00
2022-12-01T06:22:57.586Z,0.00
2022-12-01T06:23:57.791Z,0.00
2022-12-01T06:24:58.168Z,0.00
2022-12-01T06:25:58.138Z,0.00
2022-12-01T06:26:58.412Z,0.00
2022-12-01T06:27:58.547Z,0.00
2022-12-01T06:28:58.668Z,0.00
2022-12-01T06:29:58.764Z,0.00
2022-12-01T06:31:03.230Z,0.00
2022-12-01T06:31:59.215Z,0.00
2022-12-01T06:32:59.334Z,0.00
2022-12-01T06:33:59.538Z,0.00
2022-12-01T06:34:59.755Z,0.00
2022-12-01T06:36:00.007Z,0.00
2022-12-01T06:37:00.152Z,0.00
2022-12-01T06:38:00.360Z,0.00
2022-12-01T06:39:00.545Z,0.00
2022-12-01T06:40:00.752Z,0.00
2022-12-01T06:41:00.923Z,0.00
2022-12-01T06:42:01.113Z,0.00
2022-12-01T06:43:01.303Z,0.00
2022-12-01T06:44:01.480Z,0.00
2022-12-01T06:45:01.744Z,0.00
2022-12-01T06:46:02.592Z,0.00
2022-12-01T06:47:02.030Z,0.00
2022-12-01T06:48:02.239Z,0.00
2022-12-01T06:49:02.415Z,0.00
2022-12-01T06:50:02.607Z,0.00
2022-12-01T06:51:02.838Z,0.00
2022-12-01T06:52:02.933Z,0.00
2022-12-01T06:53:03.134Z,0.00
2022-12-01T06:54:05.624Z,0.00
2022-12-01T06:55:03.513Z,0.00
2022-12-01T06:56:03.667Z,0.00
2022-12-01T06:57:03.779Z,0.00
2022-12-01T06:58:03.957Z,0.00
2022-12-01T06:59:04.057Z,0.00
2022-12-01T07:00:04.260Z,0.00
2022-12-01T07:01:04.427Z,0.00
2022-12-01T07:02:04.531Z,0.00
2022-12-01T07:03:04.755Z,0.00
2022-12-01T07:04:05.041Z,0.00
2022-12-01T07:05:05.124Z,0.00
2022-12-01T07:06:05.332Z,0.00
2022-12-01T07:07:05.515Z,0.00
2022-12-01T07:08:05.823Z,0.00
2022-12-01T07:09:05.923Z,0.00
2022-12-01T07:10:06.122Z,5.62
2022-12-01T07:11:06.305Z,5.62
2022-12-01T07:12:06.545Z,5.62
2022-12-01T07:13:06.731Z,5.62
2022-12-01T07:14:06.938Z,5.62
2022-12-01T07:15:07.101Z,5.62
2022-12-01T07:16:07.299Z,5.62
2022-12-01T07:17:07.562Z,11.25
2022-12-01T07:18:07.688Z,11.25
2022-12-01T07:19:07.762Z,11.25
2022-12-01T07:20:07.967Z,11.25
2022-12-01T07:21:08.146Z,11.25
2022-12-01T07:22:08.327Z,11.25
2022-12-01T07:23:08.525Z,11.25
2022-12-01T07:24:08.716Z,11.25
2022-12-01T07:25:08.882Z,11.25
2022-12-01T07:26:09.071Z,11.25
2022-12-01T07:27:09.275Z,11.25
2022-12-01T07:28:09.476Z,16.88
2022-12-01T07:29:09.645Z,16.88
2022-12-01T07:30:09.844Z,16.88
2022-12-01T07:31:10.065Z,16.88
2022-12-01T07:32:10.174Z,16.88
2022-12-01T07:33:10.364Z,16.88
2022-12-01T07:34:10.555Z,16.88
2022-12-01T07:35:10.737Z,22.50
2022-12-01T07:36:10.938Z,22.50
2022-12-01T07:37:11.115Z,22.50
2022-12-01T07:38:11.363Z,22.50
2022-12-01T07:39:11.438Z,22.50
2022-12-01T07:40:11.624Z,22.50
2022-12-01T07:41:11.834Z,28.12
2022-12-01T07:42:12.012Z,28.12
2022-12-01T07:43:12.218Z,28.12
2022-12-01T07:44:12.422Z,28.12
2022-12-01T07:45:12.608Z,33.75
2022-12-01T07:46:17.218Z,33.75
2022-12-01T07:47:13.948Z,33.75
2022-12-01T07:48:13.170Z,33.75
2022-12-01T07:49:13.381Z,33.75
2022-12-01T07:50:13.576Z,33.75
2022-12-01T07:51:13.740Z,33.75
2022-12-01T07:52:13.925Z,33.75
2022-12-01T07:53:14.122Z,33.75
2022-12-01T07:54:14.373Z,33.75
2022-12-01T07:55:14.527Z,33.75
2022-12-01T07:56:14.714Z,33.75
2022-12-01T07:57:14.952Z,33.75
2022-12-01T07:58:15.135Z,33.75
2022-12-01T07:59:15.447Z,33.75
2022-12-01T08:00:15.552Z,33.75
2022-12-01T08:01:15.838Z,33.75
2022-12-01T08:02:16.048Z,39.38
2022-12-01T08:03:16.231Z,39.38
2022-12-01T08:04:16.344Z,39.38
2022-12-01T08:05:16.589Z,39.38
2022-12-01T08:06:16.659Z,33.75
2022-12-01T08:07:16.826Z,33.75
2022-12-01T08:08:17.107Z,39.38
2022-12-01T08:09:17.205Z,39.38
2022-12-01T08:10:17.378Z,39.38
2022-12-01T08:11:17.562Z,39.38
2022-12-01T08:12:17.737Z,39.38
2022-12-01T08:13:17.920Z,39.38
2022-12-01T08:14:18.100Z,39.38
2022-12-01T08:15:18.268Z,39.38
2022-12-01T08:16:18.473Z,39.38
2022-12-01T08:17:18.636Z,39.38
2022-12-01T08:18:18.884Z,39.38
2022-12-01T08:19:18.939Z,39.38
2022-12-01T08:20:23.714Z,45.00
2022-12-01T08:21:20.260Z,45.00
2022-12-01T08:22:19.436Z,45.00
2022-12-01T08:23:19.618Z,45.00
2022-12-01T08:24:19.804Z,45.00
2022-12-01T08:25:19.973Z,45.00
2022-12-01T08:26:20.182Z,45.00
2022-12-01T08:27:20.354Z,45.00
2022-12-01T08:28:20.557Z,45.00
2022-12-01T08:29:20.736Z,45.00
2022-12-01T08:30:20.916Z,45.00
2022-12-01T08:31:21.143Z,45.00
2022-12-01T08:32:21.223Z,45.00
2022-12-01T08:33:21.422Z,45.00
2022-12-01T08:34:21.615Z,45.00
2022-12-01T08:35:21.782Z,45.00
2022-12-01T08:36:21.953Z,45.00
2022-12-01T08:37:22.122Z,45.00
2022-12-01T08:38:22.324Z,50.62
2022-12-01T08:39:22.503Z,50.62
2022-12-01T08:40:22.689Z,50.62
2022-12-01T08:41:22.871Z,45.00
2022-12-01T08:42:23.057Z,45.00
2022-12-01T08:43:49.649Z,45.00
2022-12-01T08:44:24.428Z,45.00
2022-12-01T08:45:23.508Z,45.00
2022-12-01T08:46:23.759Z,45.00
2022-12-01T08:47:23.813Z,45.00
2022-12-01T08:48:24.009Z,45.00
2022-12-01T08:49:24.188Z,45.00
2022-12-01T08:50:24.385Z,45.00
2022-12-01T08:51:24.560Z,45.00
2022-12-01T08:52:24.742Z,50.62
2022-12-01T08:53:25.059Z,50.62
2022-12-01T08:54:25.043Z,50.62
2022-12-01T08:55:25.210Z,50.62
2022-12-01T08:56:25.415Z,50.62
2022-12-01T08:57:25.701Z,56.25
2022-12-01T08:58:25.794Z,56.25
2022-12-01T08:59:25.964Z,56.25
2022-12-01T09:00:26.149Z,56.25
2022-12-01T09:01:26.425Z,50.62
2022-12-01T09:02:26.575Z,56.25
2022-12-01T09:03:26.758Z,56.25
2022-12-01T09:04:26.952Z,56.25
2022-12-01T09:05:27.121Z,61.88
2022-12-01T09:06:27.303Z,61.88
2022-12-01T09:07:27.476Z,61.88
2022-12-01T09:08:27.661Z,61.88
2022-12-01T09:09:27.842Z,61.88
2022-12-01T09:10:28.011Z,56.25
2022-12-01T09:11:28.180Z,61.88
2022-12-01T09:12:28.365Z,67.50
2022-12-01T09:13:28.548Z,67.50
2022-12-01T09:14:28.727Z,73.12
2022-12-01T09:15:28.888Z,67.50
2022-12-01T09:16:29.265Z,67.50
2022-12-01T09:17:29.227Z,67.50
2022-12-01T09:18:29.509Z,67.50
2022-12-01T09:19:29.577Z,73.12
2022-12-01T09:20:29.781Z,67.50
2022-12-01T09:21:29.947Z,61.88
2022-12-01T09:22:30.143Z,61.88
2022-12-01T09:23:30.356Z,61.88
2022-12-01T09:24:30.564Z,61.88
2022-12-01T09:25:30.790Z,61.88
2022-12-01T09:26:30.962Z,61.88
2022-12-01T09:27:31.181Z,61.88
2022-12-01T09:28:31.352Z,61.88
2022-12-01T09:29:31.528Z,61.88
2022-12-01T09:30:31.714Z,67.50
2022-12-01T09:31:31.966Z,67.50
2022-12-01T09:32:32.033Z,67.50
2022-12-01T09:33:32.217Z,73.12
2022-12-01T09:34:32.420Z,73.12
2022-12-01T09:35:32.616Z,78.75
2022-12-01T09:36:32.797Z,78.75
2022-12-01T09:37:32.971Z,78.75
2022-12-01T09:38:33.164Z,78.75
2022-12-01T09:39:33.345Z,84.38
2022-12-01T09:40:33.592Z,84.38
2022-12-01T09:41:33.680Z,84.38
2022-12-01T09:42:35.532Z,84.38
2022-12-01T09:43:34.047Z,84.38
2022-12-01T09:44:41.247Z,84.38
2022-12-01T09:45:35.073Z,84.38
2022-12-01T09:46:34.614Z,78.75
2022-12-01T09:47:35.509Z,78.75
2022-12-01T09:48:34.910Z,78.75
2022-12-01T09:49:35.077Z,78.75
2022-12-01T09:50:35.251Z,78.75
2022-12-01T09:51:35.417Z,73.12
2022-12-01T09:52:35.580Z,73.12
2022-12-01T09:53:35.764Z,73.12
2022-12-01T09:54:35.932Z,73.12
2022-12-01T09:55:36.104Z,73.12
2022-12-01T09:56:36.282Z,73.12
2022-12-01T09:57:36.447Z,73.12
2022-12-01T09:58:36.646Z,73.12
2022-12-01T09:59:36.841Z,73.12
2022-12-01T10:00:37.091Z,67.50
2022-12-01T10:01:37.359Z,67.50
2022-12-01T10:02:37.405Z,67.50
2022-12-01T10:03:37.567Z,67.50
2022-12-01T10:04:37.722Z,67.50
2022-12-01T10:05:51.317Z,67.50
2022-12-01T10:06:39.182Z,67.50
2022-12-01T10:07:38.285Z,67.50
2022-12-01T10:08:38.448Z,67.50
2022-12-01T10:09:38.606Z,67.50
2022-12-01T10:10:38.769Z,67.50
2022-12-01T10:11:38.916Z,67.50
2022-12-01T10:12:39.096Z,67.50
2022-12-01T10:13:39.485Z,73.12
2022-12-01T10:14:39.451Z,73.12
2022-12-01T10:15:39.593Z,73.12
2022-12-01T10:16:39.773Z,73.12
2022-12-01T10:17:39.933Z,78.75
2022-12-01T10:18:40.089Z,84.38
2022-12-01T10:19:40.248Z,90.00
2022-12-01T10:20:40.411Z,90.00
2022-12-01T10:21:40.569Z,90.00
2022-12-01T10:22:40.723Z,90.00
2022-12-01T10:23:40.885Z,90.00
2022-12-01T10:24:41.075Z,95.62
2022-12-01T10:25:41.253Z,101.25
2022-12-01T10:26:41.398Z,112.50
2022-12-01T10:27:41.567Z,123.75
2022-12-01T10:28:41.731Z,123.75
2022-12-01T10:29:47.206Z,112.50
2022-12-01T10:30:43.094Z,106.88
2022-12-01T10:31:42.289Z,95.62
2022-12-01T10:32:42.449Z,84.38
2022-12-01T10:33:42.599Z,84.38
2022-12-01T10:34:42.755Z,84.38
2022-12-01T10:35:42.901Z,90.00
2022-12-01T10:36:43.055Z,95.62
2022-12-01T10:37:43.283Z,90.00
2022-12-01T10:38:43.409Z,84.38
2022-12-01T10:39:43.569Z,78.75
2022-12-01T10:40:43.740Z,78.75
2022-12-01T10:41:43.913Z,90.00
2022-12-01T10:42:44.073Z,95.62
2022-12-01T10:43:44.243Z,101.25
2022-12-01T10:44:44.395Z,95.62
2022-12-01T10:45:44.645Z,95.62
2022-12-01T10:46:44.695Z,90.00
2022-12-01T10:47:44.838Z,95.62
2022-12-01T10:48:44.983Z,95.62
2022-12-01T10:49:45.153Z,95.62
2022-12-01T10:50:45.308Z,95.62
2022-12-01T10:51:45.483Z,95.62
2022-12-01T10:52:45.631Z,95.62
2022-12-01T10:53:45.781Z,95.62
2022-12-01T10:54:45.927Z,95.62
2022-12-01T10:55:48.037Z,95.62
2022-12-01T10:56:46.243Z,95.62
2022-12-01T10:57:46.409Z,90.00
2022-12-01T10:58:46.557Z,90.00
2022-12-01T10:59:46.802Z,84.38
2022-12-01T11:01:02.417Z,84.38
2022-12-01T11:01:48.007Z,90.00
2022-12-01T11:02:47.303Z,90.00
2022-12-01T11:03:47.410Z,90.00
2022-12-01T11:04:47.548Z,90.00
2022-12-01T11:05:47.717Z,90.00
2022-12-01T11:06:47.867Z,95.62
2022-12-01T11:07:48.105Z,95.62
2022-12-01T11:08:48.184Z,95.62
2022-12-01T11:09:48.692Z,95.62
2022-12-01T11:10:48.585Z,95.62
2022-12-01T11:11:48.762Z,95.62
2022-12-01T11:12:48.910Z,95.62
2022-12-01T11:13:49.073Z,95.62
2022-12-01T11:14:49.229Z,95.62
2022-12-01T11:15:49.413Z,101.25
2022-12-01T11:16:49.607Z,95.62
2022-12-01T11:17:49.770Z,95.62
2022-12-01T11:18:49.955Z,95.62
2022-12-01T11:19:50.358Z,95.62
2022-12-01T11:20:50.323Z,95.62
2022-12-01T11:21:50.474Z,95.62
2022-12-01T11:22:50.638Z,95.62
2022-12-01T11:23:50.819Z,101.25
2022-12-01T11:24:50.930Z,101.25
2022-12-01T11:25:51.102Z,106.88
2022-12-01T11:26:51.243Z,112.50
2022-12-01T11:27:51.417Z,112.50
2022-12-01T11:28:51.549Z,118.12
2022-12-01T11:29:51.997Z,118.12
2022-12-01T11:30:56.522Z,112.50
2022-12-01T11:31:52.094Z,112.50
2022-12-01T11:32:52.143Z,106.88
2022-12-01T11:33:52.324Z,106.88
2022-12-01T11:34:52.498Z,101.25
2022-12-01T11:35:52.662Z,101.25
2022-12-01T11:36:52.807Z,101.25
2022-12-01T11:38:21.179Z,106.88
2022-12-01T11:38:54.134Z,112.50
2022-12-01T11:39:53.290Z,112.50
2022-12-01T11:40:53.436Z,106.88
2022-12-01T11:41:53.590Z,101.25
2022-12-01T11:42:53.722Z,101.25
2022-12-01T11:44:01.493Z,95.62
2022-12-01T11:44:55.072Z,95.62
2022-12-01T11:45:54.324Z,95.62
2022-12-01T11:47:07.844Z,101.25
2022-12-01T11:47:55.558Z,101.25
2022-12-01T11:48:54.688Z,101.25
2022-12-01T11:49:54.840Z,101.25
2022-12-01T11:50:54.995Z,95.62
2022-12-01T11:51:55.141Z,95.62
2022-12-01T11:52:55.336Z,95.62
2022-12-01T11:53:55.512Z,95.62
2022-12-01T11:54:55.654Z,95.62
2022-12-01T11:55:56.850Z,95.62
2022-12-01T11:57:31.784Z,101.25
2022-12-01T11:57:58.118Z,106.88
2022-12-01T11:58:56.268Z,112.50
2022-12-01T11:59:56.443Z,112.50
2022-12-01T12:00:56.616Z,106.88
2022-12-01T12:01:56.820Z,101.25
2022-12-01T12:02:56.876Z,95.62
2022-12-01T12:03:57.104Z,95.62
2022-12-01T12:04:57.128Z,90.00
2022-12-01T12:06:01.362Z,90.00
2022-12-01T12:06:58.362Z,90.00
2022-12-01T12:07:57.587Z,95.62
2022-12-01T12:08:57.667Z,95.62
2022-12-01T12:09:57.839Z,95.62
2022-12-01T12:10:57.973Z,95.62
2022-12-01T12:11:58.122Z,90.00
2022-12-01T12:12:58.255Z,84.38
2022-12-01T12:13:58.424Z,84.38
2022-12-01T12:14:58.586Z,78.75
2022-12-01T12:15:58.797Z,84.38
2022-12-01T12:16:58.979Z,84.38
2022-12-01T12:17:59.174Z,84.38
2022-12-01T12:18:59.286Z,90.00
2022-12-01T12:20:07.753Z,90.00
2022-12-01T12:21:00.667Z,84.38
2022-12-01T12:22:00.338Z,84.38
2022-12-01T12:22:59.925Z,78.75
2022-12-01T12:24:00.090Z,78.75
2022-12-01T12:25:00.255Z,78.75
2022-12-01T12:26:00.416Z,84.38
2022-12-01T12:27:00.552Z,78.75
2022-12-01T12:28:00.699Z,73.12
2022-12-01T12:29:00.833Z,73.12
2022-12-01T12:30:00.969Z,73.12
2022-12-01T12:31:01.195Z,67.50
2022-12-01T12:32:01.254Z,67.50
2022-12-01T12:33:01.393Z,67.50
2022-12-01T12:34:01.567Z,61.88
2022-12-01T12:35:01.719Z,61.88
2022-12-01T12:36:01.873Z,67.50
2022-12-01T12:37:02.053Z,67.50
2022-12-01T12:38:02.212Z,67.50
2022-12-01T12:39:02.406Z,67.50
2022-12-01T12:40:02.562Z,67.50
2022-12-01T12:41:02.705Z,67.50
2022-12-01T12:42:02.863Z,67.50
2022-12-01T12:43:03.021Z,67.50
2022-12-01T12:44:03.169Z,67.50
2022-12-01T12:45:03.304Z,67.50
2022-12-01T12:46:04.515Z,67.50
2022-12-01T12:47:03.582Z,67.50
2022-12-01T12:48:04.257Z,73.12
2022-12-01T12:49:19.360Z,73.12
2022-12-01T12:50:05.153Z,67.50
2022-12-01T12:51:04.280Z,67.50
2022-12-01T12:52:08.301Z,61.88
2022-12-01T12:53:04.597Z,61.88
2022-12-01T12:54:04.785Z,61.88
2022-12-01T12:55:04.820Z,61.88
2022-12-01T12:56:04.979Z,56.25
2022-12-01T12:57:05.117Z,56.25
2022-12-01T12:58:10.784Z,56.25
2022-12-01T12:59:06.456Z,56.25
2022-12-01T13:00:05.605Z,50.62
2022-12-01T13:01:05.841Z,50.62
2022-12-01T13:02:05.991Z,50.62
2022-12-01T13:03:06.218Z,50.62
2022-12-01T13:04:06.244Z,50.62
2022-12-01T13:05:06.380Z,45.00
2022-12-01T13:06:06.521Z,45.00
2022-12-01T13:07:06.671Z,45.00
2022-12-01T13:08:06.882Z,39.38